sensor_id;sensor_type;location;lat;lon;timestamp;P1;durP1;ratioP1;P2;durP2;ratioP2
71351;SDS011;59159;51.652;4.864;2023-06-14T00:02:11;7.83;;;3.37;;
71351;SDS011;59159;51.652;4.864;2023-06-14T00:04:37;7.03;;;3.13;;
71351;SDS011;59159;51.652;4.864;2023-06-14T00:07:04;7.35;;;3.40;;
71351;SDS011;59159;51.652;4.864;2023-06-14T00:09:33;6.43;;;3.10;;
71351;SDS011;59159;51.652;4.864;2023-06-14T00:11:59;7.77;;;3.10;;
71351;SDS011;59159;51.652;4.864;2023-06-14T00:14:25;6.88;;;3.00;;
71351;SDS011;59159;51.652;4.864;2023-06-14T00:16:51;7.03;;;3.45;;
71351;SDS011;59159;51.652;4.864;2023-06-14T00:19:24;7.97;;;3.30;;
71351;SDS011;59159;51.652;4.864;2023-06-14T00:21:50;8.13;;;3.60;;
71351;SDS011;59159;51.652;4.864;2023-06-14T00:24:17;7.60;;;3.10;;
71351;SDS011;59159;51.652;4.864;2023-06-14T00:26:43;7.87;;;3.33;;
71351;SDS011;59159;51.652;4.864;2023-06-14T00:29:09;8.25;;;3.60;;
71351;SDS011;59159;51.652;4.864;2023-06-14T00:31:35;6.45;;;3.15;;
71351;SDS011;59159;51.652;4.864;2023-06-14T00:34:01;8.00;;;3.53;;
71351;SDS011;59159;51.652;4.864;2023-06-14T00:36:27;7.73;;;3.10;;
71351;SDS011;59159;51.652;4.864;2023-06-14T00:38:53;6.47;;;2.75;;
71351;SDS011;59159;51.652;4.864;2023-06-14T00:41:19;8.52;;;3.00;;
71351;SDS011;59159;51.652;4.864;2023-06-14T00:43:44;6.60;;;2.80;;
71351;SDS011;59159;51.652;4.864;2023-06-14T00:46:10;5.85;;;2.67;;
71351;SDS011;59159;51.652;4.864;2023-06-14T00:48:37;6.72;;;2.90;;
71351;SDS011;59159;51.652;4.864;2023-06-14T00:51:04;5.60;;;2.47;;
71351;SDS011;59159;51.652;4.864;2023-06-14T00:53:31;6.97;;;2.72;;
71351;SDS011;59159;51.652;4.864;2023-06-14T00:56:00;7.47;;;2.90;;
71351;SDS011;59159;51.652;4.864;2023-06-14T00:58:26;6.50;;;2.72;;
71351;SDS011;59159;51.652;4.864;2023-06-14T01:00:53;6.00;;;2.90;;
71351;SDS011;59159;51.652;4.864;2023-06-14T01:03:19;7.32;;;2.85;;
71351;SDS011;59159;51.652;4.864;2023-06-14T01:05:47;7.35;;;2.70;;
71351;SDS011;59159;51.652;4.864;2023-06-14T01:10:53;7.57;;;2.50;;
71351;SDS011;59159;51.652;4.864;2023-06-14T01:13:29;6.95;;;2.90;;
71351;SDS011;59159;51.652;4.864;2023-06-14T01:15:58;7.40;;;2.60;;
71351;SDS011;59159;51.652;4.864;2023-06-14T01:18:24;5.72;;;2.17;;
71351;SDS011;59159;51.652;4.864;2023-06-14T01:20:51;5.90;;;2.33;;
71351;SDS011;59159;51.652;4.864;2023-06-14T01:23:20;8.32;;;2.35;;
71351;SDS011;59159;51.652;4.864;2023-06-14T01:25:47;6.07;;;2.50;;
71351;SDS011;59159;51.652;4.864;2023-06-14T01:28:18;6.53;;;2.70;;
71351;SDS011;59159;51.652;4.864;2023-06-14T01:30:45;6.57;;;2.45;;
71351;SDS011;59159;51.652;4.864;2023-06-14T01:33:16;6.10;;;2.47;;
71351;SDS011;59159;51.652;4.864;2023-06-14T01:35:43;6.10;;;2.70;;
71351;SDS011;59159;51.652;4.864;2023-06-14T01:38:10;6.05;;;2.75;;
71351;SDS011;59159;51.652;4.864;2023-06-14T01:40:36;6.60;;;2.57;;
71351;SDS011;59159;51.652;4.864;2023-06-14T01:43:02;7.22;;;2.47;;
71351;SDS011;59159;51.652;4.864;2023-06-14T01:45:29;8.25;;;2.85;;
71351;SDS011;59159;51.652;4.864;2023-06-14T01:47:55;6.65;;;2.25;;
71351;SDS011;59159;51.652;4.864;2023-06-14T01:50:21;6.10;;;2.50;;
71351;SDS011;59159;51.652;4.864;2023-06-14T01:52:47;6.90;;;2.33;;
71351;SDS011;59159;51.652;4.864;2023-06-14T01:55:13;6.07;;;2.58;;
71351;SDS011;59159;51.652;4.864;2023-06-14T01:57:39;7.53;;;2.03;;
71351;SDS011;59159;51.652;4.864;2023-06-14T02:00:05;5.85;;;2.30;;
71351;SDS011;59159;51.652;4.864;2023-06-14T02:02:35;6.30;;;2.92;;
71351;SDS011;59159;51.652;4.864;2023-06-14T02:05:01;5.77;;;2.40;;
71351;SDS011;59159;51.652;4.864;2023-06-14T02:07:27;6.82;;;2.60;;
71351;SDS011;59159;51.652;4.864;2023-06-14T02:09:53;6.65;;;2.63;;
71351;SDS011;59159;51.652;4.864;2023-06-14T02:12:19;7.40;;;2.30;;
71351;SDS011;59159;51.652;4.864;2023-06-14T02:14:45;5.60;;;2.30;;
71351;SDS011;59159;51.652;4.864;2023-06-14T02:17:11;6.63;;;2.42;;
71351;SDS011;59159;51.652;4.864;2023-06-14T02:19:37;8.15;;;2.83;;
71351;SDS011;59159;51.652;4.864;2023-06-14T02:22:03;8.33;;;2.70;;
71351;SDS011;59159;51.652;4.864;2023-06-14T02:24:29;5.93;;;2.20;;
71351;SDS011;59159;51.652;4.864;2023-06-14T02:26:55;7.15;;;2.20;;
71351;SDS011;59159;51.652;4.864;2023-06-14T02:29:21;6.37;;;2.40;;
71351;SDS011;59159;51.652;4.864;2023-06-14T02:31:47;7.38;;;2.38;;
71351;SDS011;59159;51.652;4.864;2023-06-14T02:34:14;6.47;;;2.40;;
71351;SDS011;59159;51.652;4.864;2023-06-14T02:36:42;6.32;;;2.22;;
71351;SDS011;59159;51.652;4.864;2023-06-14T02:39:08;5.33;;;2.30;;
71351;SDS011;59159;51.652;4.864;2023-06-14T02:41:35;7.13;;;2.60;;
71351;SDS011;59159;51.652;4.864;2023-06-14T02:44:01;5.82;;;2.33;;
71351;SDS011;59159;51.652;4.864;2023-06-14T02:46:27;6.60;;;2.30;;
71351;SDS011;59159;51.652;4.864;2023-06-14T02:48:53;6.38;;;2.50;;
71351;SDS011;59159;51.652;4.864;2023-06-14T02:51:19;6.93;;;2.70;;
71351;SDS011;59159;51.652;4.864;2023-06-14T02:53:45;6.77;;;2.17;;
71351;SDS011;59159;51.652;4.864;2023-06-14T02:56:11;5.40;;;2.08;;
71351;SDS011;59159;51.652;4.864;2023-06-14T02:58:38;7.00;;;2.25;;
71351;SDS011;59159;51.652;4.864;2023-06-14T03:01:05;6.72;;;2.63;;
71351;SDS011;59159;51.652;4.864;2023-06-14T03:03:32;7.03;;;2.33;;
71351;SDS011;59159;51.652;4.864;2023-06-14T03:05:59;5.75;;;2.17;;
71351;SDS011;59159;51.652;4.864;2023-06-14T03:08:29;6.10;;;2.20;;
71351;SDS011;59159;51.652;4.864;2023-06-14T03:10:56;6.10;;;2.03;;
71351;SDS011;59159;51.652;4.864;2023-06-14T03:13:23;6.85;;;2.17;;
71351;SDS011;59159;51.652;4.864;2023-06-14T03:15:49;6.05;;;2.10;;
71351;SDS011;59159;51.652;4.864;2023-06-14T03:18:19;6.33;;;2.30;;
71351;SDS011;59159;51.652;4.864;2023-06-14T03:20:47;6.15;;;2.40;;
71351;SDS011;59159;51.652;4.864;2023-06-14T03:23:14;6.35;;;2.65;;
71351;SDS011;59159;51.652;4.864;2023-06-14T03:25:40;6.05;;;2.20;;
71351;SDS011;59159;51.652;4.864;2023-06-14T03:28:07;6.43;;;2.20;;
71351;SDS011;59159;51.652;4.864;2023-06-14T03:30:33;6.35;;;2.10;;
71351;SDS011;59159;51.652;4.864;2023-06-14T03:32:59;6.53;;;2.33;;
71351;SDS011;59159;51.652;4.864;2023-06-14T03:35:26;7.57;;;2.27;;
71351;SDS011;59159;51.652;4.864;2023-06-14T03:37:52;5.70;;;2.00;;
71351;SDS011;59159;51.652;4.864;2023-06-14T03:40:18;5.95;;;2.50;;
71351;SDS011;59159;51.652;4.864;2023-06-14T03:42:52;7.20;;;2.30;;
71351;SDS011;59159;51.652;4.864;2023-06-14T03:45:18;5.68;;;2.10;;
71351;SDS011;59159;51.652;4.864;2023-06-14T03:47:44;8.35;;;2.08;;
71351;SDS011;59159;51.652;4.864;2023-06-14T03:50:10;7.63;;;2.10;;
71351;SDS011;59159;51.652;4.864;2023-06-14T03:52:36;5.67;;;2.27;;
71351;SDS011;59159;51.652;4.864;2023-06-14T03:55:02;5.55;;;1.85;;
71351;SDS011;59159;51.652;4.864;2023-06-14T03:57:29;5.97;;;2.17;;
71351;SDS011;59159;51.652;4.864;2023-06-14T03:59:55;6.43;;;2.17;;
71351;SDS011;59159;51.652;4.864;2023-06-14T04:02:21;7.07;;;2.17;;
71351;SDS011;59159;51.652;4.864;2023-06-14T04:04:47;7.35;;;2.30;;
71351;SDS011;59159;51.652;4.864;2023-06-14T04:07:14;6.90;;;2.10;;
71351;SDS011;59159;51.652;4.864;2023-06-14T04:09:40;6.53;;;2.13;;
71351;SDS011;59159;51.652;4.864;2023-06-14T04:12:07;5.18;;;2.03;;
71351;SDS011;59159;51.652;4.864;2023-06-14T04:14:35;6.40;;;2.22;;
71351;SDS011;59159;51.652;4.864;2023-06-14T04:17:01;5.40;;;2.30;;
71351;SDS011;59159;51.652;4.864;2023-06-14T04:19:27;6.00;;;2.15;;
71351;SDS011;59159;51.652;4.864;2023-06-14T04:21:53;5.72;;;2.20;;
71351;SDS011;59159;51.652;4.864;2023-06-14T04:24:19;5.97;;;2.10;;
71351;SDS011;59159;51.652;4.864;2023-06-14T04:26:45;8.18;;;2.28;;
71351;SDS011;59159;51.652;4.864;2023-06-14T04:29:12;6.75;;;2.20;;
71351;SDS011;59159;51.652;4.864;2023-06-14T04:31:48;7.73;;;2.30;;
71351;SDS011;59159;51.652;4.864;2023-06-14T04:34:14;5.97;;;2.20;;
71351;SDS011;59159;51.652;4.864;2023-06-14T04:36:43;7.60;;;2.10;;
71351;SDS011;59159;51.652;4.864;2023-06-14T04:39:21;6.35;;;2.83;;
71351;SDS011;59159;51.652;4.864;2023-06-14T04:41:47;6.77;;;2.40;;
71351;SDS011;59159;51.652;4.864;2023-06-14T04:44:18;7.35;;;2.40;;
71351;SDS011;59159;51.652;4.864;2023-06-14T04:46:44;6.93;;;2.67;;
71351;SDS011;59159;51.652;4.864;2023-06-14T04:49:16;8.10;;;2.60;;
71351;SDS011;59159;51.652;4.864;2023-06-14T04:51:43;6.22;;;2.83;;
71351;SDS011;59159;51.652;4.864;2023-06-14T04:54:10;7.30;;;2.60;;
71351;SDS011;59159;51.652;4.864;2023-06-14T04:56:39;9.03;;;2.40;;
71351;SDS011;59159;51.652;4.864;2023-06-14T04:59:05;10.98;;;2.33;;
71351;SDS011;59159;51.652;4.864;2023-06-14T05:01:31;9.27;;;2.70;;
71351;SDS011;59159;51.652;4.864;2023-06-14T05:03:58;6.25;;;2.45;;
71351;SDS011;59159;51.652;4.864;2023-06-14T05:06:24;8.50;;;2.43;;
71351;SDS011;59159;51.652;4.864;2023-06-14T05:08:51;8.23;;;2.40;;
71351;SDS011;59159;51.652;4.864;2023-06-14T05:11:17;8.00;;;2.70;;
71351;SDS011;59159;51.652;4.864;2023-06-14T05:13:43;7.70;;;2.43;;
71351;SDS011;59159;51.652;4.864;2023-06-14T05:16:09;8.90;;;2.45;;
71351;SDS011;59159;51.652;4.864;2023-06-14T05:18:36;6.55;;;2.40;;
71351;SDS011;59159;51.652;4.864;2023-06-14T05:21:03;7.37;;;2.73;;
71351;SDS011;59159;51.652;4.864;2023-06-14T05:23:32;7.32;;;2.65;;
71351;SDS011;59159;51.652;4.864;2023-06-14T05:25:58;7.47;;;3.30;;
71351;SDS011;59159;51.652;4.864;2023-06-14T05:28:24;7.88;;;2.75;;
71351;SDS011;59159;51.652;4.864;2023-06-14T05:30:51;5.87;;;2.40;;
71351;SDS011;59159;51.652;4.864;2023-06-14T05:33:17;9.93;;;2.50;;
71351;SDS011;59159;51.652;4.864;2023-06-14T05:35:43;6.50;;;2.78;;
71351;SDS011;59159;51.652;4.864;2023-06-14T05:38:09;9.37;;;2.60;;
71351;SDS011;59159;51.652;4.864;2023-06-14T05:40:35;11.00;;;2.85;;
71351;SDS011;59159;51.652;4.864;2023-06-14T05:43:01;6.55;;;2.58;;
71351;SDS011;59159;51.652;4.864;2023-06-14T05:45:27;8.60;;;2.80;;
71351;SDS011;59159;51.652;4.864;2023-06-14T05:47:53;7.60;;;2.25;;
71351;SDS011;59159;51.652;4.864;2023-06-14T05:50:19;7.68;;;2.70;;
71351;SDS011;59159;51.652;4.864;2023-06-14T05:52:46;10.45;;;2.67;;
71351;SDS011;59159;51.652;4.864;2023-06-14T05:55:12;6.90;;;2.53;;
71351;SDS011;59159;51.652;4.864;2023-06-14T05:57:38;6.93;;;2.63;;
71351;SDS011;59159;51.652;4.864;2023-06-14T06:00:04;6.90;;;2.40;;
71351;SDS011;59159;51.652;4.864;2023-06-14T06:02:39;7.17;;;2.70;;
71351;SDS011;59159;51.652;4.864;2023-06-14T06:05:07;23.65;;;3.13;;
71351;SDS011;59159;51.652;4.864;2023-06-14T06:07:33;6.82;;;2.45;;
71351;SDS011;59159;51.652;4.864;2023-06-14T06:09:59;7.07;;;2.63;;
71351;SDS011;59159;51.652;4.864;2023-06-14T06:12:25;8.50;;;3.40;;
71351;SDS011;59159;51.652;4.864;2023-06-14T06:14:51;6.95;;;2.60;;
71351;SDS011;59159;51.652;4.864;2023-06-14T06:17:17;7.22;;;2.78;;
71351;SDS011;59159;51.652;4.864;2023-06-14T06:19:43;6.67;;;2.40;;
71351;SDS011;59159;51.652;4.864;2023-06-14T06:22:09;7.05;;;2.22;;
71351;SDS011;59159;51.652;4.864;2023-06-14T06:24:35;8.73;;;3.15;;
71351;SDS011;59159;51.652;4.864;2023-06-14T06:27:01;10.13;;;2.87;;
71351;SDS011;59159;51.652;4.864;2023-06-14T06:29:27;7.55;;;2.70;;
71351;SDS011;59159;51.652;4.864;2023-06-14T06:31:53;9.02;;;2.80;;
71351;SDS011;59159;51.652;4.864;2023-06-14T06:34:21;7.83;;;2.47;;
71351;SDS011;59159;51.652;4.864;2023-06-14T06:36:47;6.93;;;2.72;;
71351;SDS011;59159;51.652;4.864;2023-06-14T06:39:13;9.93;;;2.30;;
71351;SDS011;59159;51.652;4.864;2023-06-14T06:41:40;9.27;;;3.00;;
71351;SDS011;59159;51.652;4.864;2023-06-14T06:44:06;8.33;;;2.90;;
71351;SDS011;59159;51.652;4.864;2023-06-14T06:46:33;10.80;;;2.63;;
71351;SDS011;59159;51.652;4.864;2023-06-14T06:49:00;9.32;;;2.83;;
71351;SDS011;59159;51.652;4.864;2023-06-14T06:51:26;7.17;;;2.37;;
71351;SDS011;59159;51.652;4.864;2023-06-14T06:53:53;7.57;;;2.50;;
71351;SDS011;59159;51.652;4.864;2023-06-14T06:56:19;8.50;;;2.88;;
71351;SDS011;59159;51.652;4.864;2023-06-14T06:58:45;7.90;;;2.57;;
71351;SDS011;59159;51.652;4.864;2023-06-14T07:01:11;6.93;;;2.80;;
71351;SDS011;59159;51.652;4.864;2023-06-14T07:03:38;8.05;;;2.60;;
71351;SDS011;59159;51.652;4.864;2023-06-14T07:06:04;7.80;;;3.28;;
71351;SDS011;59159;51.652;4.864;2023-06-14T07:08:30;6.77;;;2.90;;
71351;SDS011;59159;51.652;4.864;2023-06-14T07:10:56;6.75;;;2.55;;
71351;SDS011;59159;51.652;4.864;2023-06-14T07:13:22;8.18;;;2.80;;
71351;SDS011;59159;51.652;4.864;2023-06-14T07:15:48;7.27;;;2.90;;
71351;SDS011;59159;51.652;4.864;2023-06-14T07:18:14;11.15;;;3.17;;
71351;SDS011;59159;51.652;4.864;2023-06-14T07:20:40;6.43;;;2.75;;
71351;SDS011;59159;51.652;4.864;2023-06-14T07:23:07;6.13;;;2.73;;
71351;SDS011;59159;51.652;4.864;2023-06-14T07:25:33;7.80;;;3.10;;
71351;SDS011;59159;51.652;4.864;2023-06-14T07:28:00;7.45;;;2.90;;
71351;SDS011;59159;51.652;4.864;2023-06-14T07:30:29;8.45;;;2.70;;
71351;SDS011;59159;51.652;4.864;2023-06-14T07:32:55;7.07;;;2.73;;
71351;SDS011;59159;51.652;4.864;2023-06-14T07:35:21;8.07;;;2.22;;
71351;SDS011;59159;51.652;4.864;2023-06-14T07:37:47;6.65;;;2.70;;
71351;SDS011;59159;51.652;4.864;2023-06-14T07:40:14;11.73;;;2.83;;
71351;SDS011;59159;51.652;4.864;2023-06-14T07:42:41;6.57;;;2.83;;
71351;SDS011;59159;51.652;4.864;2023-06-14T07:45:07;8.80;;;2.80;;
71351;SDS011;59159;51.652;4.864;2023-06-14T07:47:33;9.07;;;2.80;;
71351;SDS011;59159;51.652;4.864;2023-06-14T07:49:59;8.55;;;2.80;;
71351;SDS011;59159;51.652;4.864;2023-06-14T07:52:25;9.35;;;2.83;;
71351;SDS011;59159;51.652;4.864;2023-06-14T07:54:51;8.07;;;2.88;;
71351;SDS011;59159;51.652;4.864;2023-06-14T07:57:17;8.07;;;3.03;;
71351;SDS011;59159;51.652;4.864;2023-06-14T07:59:45;8.68;;;2.63;;
71351;SDS011;59159;51.652;4.864;2023-06-14T08:02:11;8.77;;;2.95;;
71351;SDS011;59159;51.652;4.864;2023-06-14T08:04:37;6.80;;;2.60;;
71351;SDS011;59159;51.652;4.864;2023-06-14T08:07:03;6.45;;;2.92;;
71351;SDS011;59159;51.652;4.864;2023-06-14T08:09:29;8.75;;;3.28;;
71351;SDS011;59159;51.652;4.864;2023-06-14T08:11:56;9.33;;;3.07;;
71351;SDS011;59159;51.652;4.864;2023-06-14T08:14:22;8.93;;;2.63;;
71351;SDS011;59159;51.652;4.864;2023-06-14T08:16:48;7.25;;;3.00;;
71351;SDS011;59159;51.652;4.864;2023-06-14T08:19:14;12.63;;;2.90;;
71351;SDS011;59159;51.652;4.864;2023-06-14T08:21:41;6.93;;;2.97;;
71351;SDS011;59159;51.652;4.864;2023-06-14T08:24:08;6.85;;;2.90;;
71351;SDS011;59159;51.652;4.864;2023-06-14T08:26:35;10.20;;;2.85;;
71351;SDS011;59159;51.652;4.864;2023-06-14T08:29:01;7.07;;;2.90;;
71351;SDS011;59159;51.652;4.864;2023-06-14T08:31:27;6.68;;;2.75;;
71351;SDS011;59159;51.652;4.864;2023-06-14T08:33:53;7.85;;;2.97;;
71351;SDS011;59159;51.652;4.864;2023-06-14T08:36:19;7.90;;;2.80;;
71351;SDS011;59159;51.652;4.864;2023-06-14T08:38:48;7.85;;;3.05;;
71351;SDS011;59159;51.652;4.864;2023-06-14T08:41:16;6.30;;;2.53;;
71351;SDS011;59159;51.652;4.864;2023-06-14T08:43:46;15.07;;;3.85;;
71351;SDS011;59159;51.652;4.864;2023-06-14T08:46:12;10.20;;;2.83;;
71351;SDS011;59159;51.652;4.864;2023-06-14T08:48:41;8.32;;;3.10;;
71351;SDS011;59159;51.652;4.864;2023-06-14T08:51:08;8.43;;;2.47;;
71351;SDS011;59159;51.652;4.864;2023-06-14T08:53:35;6.33;;;2.33;;
71351;SDS011;59159;51.652;4.864;2023-06-14T08:56:06;10.45;;;2.65;;
71351;SDS011;59159;51.652;4.864;2023-06-14T08:58:38;6.90;;;2.60;;
71351;SDS011;59159;51.652;4.864;2023-06-14T09:01:08;6.60;;;2.80;;
71351;SDS011;59159;51.652;4.864;2023-06-14T09:03:37;6.55;;;2.53;;
71351;SDS011;59159;51.652;4.864;2023-06-14T09:06:05;6.05;;;3.00;;
71351;SDS011;59159;51.652;4.864;2023-06-14T09:08:33;11.85;;;2.97;;
71351;SDS011;59159;51.652;4.864;2023-06-14T09:11:01;6.30;;;3.10;;
71351;SDS011;59159;51.652;4.864;2023-06-14T09:13:27;7.68;;;2.40;;
71351;SDS011;59159;51.652;4.864;2023-06-14T09:15:53;9.70;;;3.00;;
71351;SDS011;59159;51.652;4.864;2023-06-14T09:18:19;7.00;;;2.43;;
71351;SDS011;59159;51.652;4.864;2023-06-14T09:20:46;9.13;;;2.53;;
71351;SDS011;59159;51.652;4.864;2023-06-14T09:23:13;7.20;;;2.50;;
71351;SDS011;59159;51.652;4.864;2023-06-14T09:25:42;7.03;;;2.87;;
71351;SDS011;59159;51.652;4.864;2023-06-14T09:28:09;7.75;;;2.55;;
71351;SDS011;59159;51.652;4.864;2023-06-14T09:30:38;5.88;;;2.63;;
71351;SDS011;59159;51.652;4.864;2023-06-14T09:33:05;6.28;;;2.22;;
71351;SDS011;59159;51.652;4.864;2023-06-14T09:35:31;7.20;;;2.30;;
71351;SDS011;59159;51.652;4.864;2023-06-14T09:37:58;8.15;;;2.42;;
71351;SDS011;59159;51.652;4.864;2023-06-14T09:40:24;6.35;;;1.70;;
71351;SDS011;59159;51.652;4.864;2023-06-14T09:42:50;7.87;;;2.03;;
71351;SDS011;59159;51.652;4.864;2023-06-14T09:45:17;6.47;;;2.30;;
71351;SDS011;59159;51.652;4.864;2023-06-14T09:47:48;8.73;;;2.72;;
71351;SDS011;59159;51.652;4.864;2023-06-14T09:50:14;7.33;;;2.67;;
71351;SDS011;59159;51.652;4.864;2023-06-14T09:52:41;7.78;;;2.15;;
71351;SDS011;59159;51.652;4.864;2023-06-14T09:55:11;5.55;;;2.40;;
71351;SDS011;59159;51.652;4.864;2023-06-14T09:57:38;6.75;;;2.00;;
71351;SDS011;59159;51.652;4.864;2023-06-14T10:00:07;10.93;;;2.47;;
71351;SDS011;59159;51.652;4.864;2023-06-14T10:02:36;6.97;;;1.80;;
71351;SDS011;59159;51.652;4.864;2023-06-14T10:07:32;7.30;;;1.90;;
71351;SDS011;59159;51.652;4.864;2023-06-14T10:10:00;6.57;;;2.08;;
71351;SDS011;59159;51.652;4.864;2023-06-14T10:12:26;6.65;;;1.60;;
71351;SDS011;59159;51.652;4.864;2023-06-14T10:14:52;5.60;;;1.77;;
71351;SDS011;59159;51.652;4.864;2023-06-14T10:22:55;5.40;;;1.90;;
71351;SDS011;59159;51.652;4.864;2023-06-14T10:25:29;5.57;;;2.10;;
71351;SDS011;59159;51.652;4.864;2023-06-14T10:28:02;5.70;;;2.03;;
71351;SDS011;59159;51.652;4.864;2023-06-14T10:30:28;6.05;;;1.50;;
71351;SDS011;59159;51.652;4.864;2023-06-14T10:33:04;5.83;;;1.33;;
71351;SDS011;59159;51.652;4.864;2023-06-14T10:35:35;5.70;;;1.73;;
71351;SDS011;59159;51.652;4.864;2023-06-14T10:38:10;4.68;;;1.48;;
71351;SDS011;59159;51.652;4.864;2023-06-14T10:40:37;6.43;;;1.50;;
71351;SDS011;59159;51.652;4.864;2023-06-14T10:43:22;5.53;;;1.63;;
71351;SDS011;59159;51.652;4.864;2023-06-14T10:48:33;5.18;;;1.75;;
71351;SDS011;59159;51.652;4.864;2023-06-14T10:51:00;4.57;;;1.40;;
71351;SDS011;59159;51.652;4.864;2023-06-14T10:53:27;5.57;;;1.50;;
71351;SDS011;59159;51.652;4.864;2023-06-14T10:55:53;4.20;;;1.20;;
71351;SDS011;59159;51.652;4.864;2023-06-14T10:58:22;4.97;;;1.30;;
71351;SDS011;59159;51.652;4.864;2023-06-14T11:00:48;7.47;;;1.27;;
71351;SDS011;59159;51.652;4.864;2023-06-14T11:06:00;6.33;;;1.17;;
71351;SDS011;59159;51.652;4.864;2023-06-14T11:10:58;5.07;;;1.65;;
71351;SDS011;59159;51.652;4.864;2023-06-14T11:13:27;5.97;;;1.10;;
71351;SDS011;59159;51.652;4.864;2023-06-14T11:15:54;4.70;;;1.20;;
71351;SDS011;59159;51.652;4.864;2023-06-14T11:18:22;4.78;;;1.30;;
71351;SDS011;59159;51.652;4.864;2023-06-14T11:20:52;3.50;;;1.02;;
71351;SDS011;59159;51.652;4.864;2023-06-14T11:23:18;5.17;;;1.30;;
71351;SDS011;59159;51.652;4.864;2023-06-14T11:25:51;4.13;;;1.40;;
71351;SDS011;59159;51.652;4.864;2023-06-14T11:28:17;3.80;;;1.10;;
71351;SDS011;59159;51.652;4.864;2023-06-14T11:30:47;4.73;;;1.77;;
71351;SDS011;59159;51.652;4.864;2023-06-14T11:33:16;6.90;;;1.30;;
71351;SDS011;59159;51.652;4.864;2023-06-14T11:38:14;3.83;;;1.20;;
71351;SDS011;59159;51.652;4.864;2023-06-14T11:40:40;6.13;;;1.33;;
71351;SDS011;59159;51.652;4.864;2023-06-14T11:43:06;4.30;;;1.15;;
71351;SDS011;59159;51.652;4.864;2023-06-14T11:45:32;3.90;;;1.30;;
71351;SDS011;59159;51.652;4.864;2023-06-14T11:47:58;4.43;;;1.23;;
71351;SDS011;59159;51.652;4.864;2023-06-14T11:50:25;4.80;;;1.20;;
71351;SDS011;59159;51.652;4.864;2023-06-14T11:55:36;5.57;;;1.70;;
71351;SDS011;59159;51.652;4.864;2023-06-14T11:58:05;4.18;;;1.10;;
71351;SDS011;59159;51.652;4.864;2023-06-14T12:00:31;5.88;;;1.60;;
71351;SDS011;59159;51.652;4.864;2023-06-14T12:02:57;4.75;;;1.13;;
71351;SDS011;59159;51.652;4.864;2023-06-14T12:05:24;5.40;;;1.30;;
71351;SDS011;59159;51.652;4.864;2023-06-14T12:07:57;4.28;;;1.30;;
71351;SDS011;59159;51.652;4.864;2023-06-14T12:10:24;5.38;;;1.13;;
71351;SDS011;59159;51.652;4.864;2023-06-14T12:12:50;6.97;;;1.30;;
71351;SDS011;59159;51.652;4.864;2023-06-14T12:15:19;5.55;;;1.40;;
71351;SDS011;59159;51.652;4.864;2023-06-14T12:17:45;5.65;;;1.40;;
71351;SDS011;59159;51.652;4.864;2023-06-14T12:20:12;6.83;;;1.47;;
71351;SDS011;59159;51.652;4.864;2023-06-14T12:22:51;4.18;;;1.20;;
71351;SDS011;59159;51.652;4.864;2023-06-14T12:25:27;4.63;;;1.40;;
71351;SDS011;59159;51.652;4.864;2023-06-14T12:28:03;5.63;;;1.42;;
71351;SDS011;59159;51.652;4.864;2023-06-14T12:30:30;5.77;;;1.60;;
71351;SDS011;59159;51.652;4.864;2023-06-14T12:32:56;4.53;;;1.40;;
71351;SDS011;59159;51.652;4.864;2023-06-14T12:35:22;6.63;;;1.20;;
71351;SDS011;59159;51.652;4.864;2023-06-14T12:37:49;4.47;;;1.27;;
71351;SDS011;59159;51.652;4.864;2023-06-14T12:40:15;5.25;;;1.15;;
71351;SDS011;59159;51.652;4.864;2023-06-14T12:42:41;6.13;;;1.40;;
71351;SDS011;59159;51.652;4.864;2023-06-14T12:45:07;4.73;;;1.60;;
71351;SDS011;59159;51.652;4.864;2023-06-14T12:47:37;4.03;;;1.20;;
71351;SDS011;59159;51.652;4.864;2023-06-14T12:50:03;4.82;;;1.40;;
71351;SDS011;59159;51.652;4.864;2023-06-14T12:52:29;6.25;;;1.20;;
71351;SDS011;59159;51.652;4.864;2023-06-14T12:54:55;5.37;;;1.50;;
71351;SDS011;59159;51.652;4.864;2023-06-14T12:57:21;4.88;;;1.35;;
71351;SDS011;59159;51.652;4.864;2023-06-14T12:59:47;4.13;;;1.20;;
71351;SDS011;59159;51.652;4.864;2023-06-14T13:02:14;4.00;;;1.40;;
71351;SDS011;59159;51.652;4.864;2023-06-14T13:04:41;5.05;;;1.45;;
71351;SDS011;59159;51.652;4.864;2023-06-14T13:07:07;4.80;;;1.42;;
71351;SDS011;59159;51.652;4.864;2023-06-14T13:09:34;5.20;;;1.50;;
71351;SDS011;59159;51.652;4.864;2023-06-14T13:12:00;5.53;;;1.50;;
71351;SDS011;59159;51.652;4.864;2023-06-14T13:14:26;5.70;;;1.50;;
71351;SDS011;59159;51.652;4.864;2023-06-14T13:16:52;4.25;;;1.23;;
71351;SDS011;59159;51.652;4.864;2023-06-14T13:19:18;4.43;;;1.10;;
71351;SDS011;59159;51.652;4.864;2023-06-14T13:21:44;5.15;;;1.50;;
71351;SDS011;59159;51.652;4.864;2023-06-14T13:24:10;7.32;;;1.70;;
71351;SDS011;59159;51.652;4.864;2023-06-14T13:26:36;3.37;;;1.20;;
71351;SDS011;59159;51.652;4.864;2023-06-14T13:29:15;6.07;;;1.30;;
71351;SDS011;59159;51.652;4.864;2023-06-14T13:31:41;5.95;;;1.42;;
71351;SDS011;59159;51.652;4.864;2023-06-14T13:34:07;4.77;;;1.50;;
71351;SDS011;59159;51.652;4.864;2023-06-14T13:36:33;4.88;;;1.27;;
71351;SDS011;59159;51.652;4.864;2023-06-14T13:38:59;4.53;;;1.42;;
71351;SDS011;59159;51.652;4.864;2023-06-14T13:41:26;5.38;;;1.65;;
71351;SDS011;59159;51.652;4.864;2023-06-14T13:43:57;4.73;;;1.40;;
71351;SDS011;59159;51.652;4.864;2023-06-14T13:46:24;4.40;;;1.40;;
71351;SDS011;59159;51.652;4.864;2023-06-14T13:48:50;4.47;;;1.40;;
71351;SDS011;59159;51.652;4.864;2023-06-14T13:51:17;5.37;;;1.50;;
71351;SDS011;59159;51.652;4.864;2023-06-14T13:53:50;7.07;;;1.48;;
71351;SDS011;59159;51.652;4.864;2023-06-14T13:56:16;5.82;;;1.42;;
71351;SDS011;59159;51.652;4.864;2023-06-14T13:58:42;4.60;;;1.20;;
71351;SDS011;59159;51.652;4.864;2023-06-14T14:01:09;5.22;;;1.30;;
71351;SDS011;59159;51.652;4.864;2023-06-14T14:03:36;4.78;;;1.27;;
71351;SDS011;59159;51.652;4.864;2023-06-14T14:06:03;5.20;;;1.70;;
71351;SDS011;59159;51.652;4.864;2023-06-14T14:08:30;7.67;;;1.40;;
71351;SDS011;59159;51.652;4.864;2023-06-14T14:10:56;5.13;;;1.40;;
71351;SDS011;59159;51.652;4.864;2023-06-14T14:13:23;6.53;;;1.50;;
71351;SDS011;59159;51.652;4.864;2023-06-14T14:15:49;5.37;;;1.67;;
71351;SDS011;59159;51.652;4.864;2023-06-14T14:18:16;5.47;;;1.20;;
71351;SDS011;59159;51.652;4.864;2023-06-14T14:20:42;6.07;;;1.60;;
71351;SDS011;59159;51.652;4.864;2023-06-14T14:23:08;5.63;;;1.50;;
71351;SDS011;59159;51.652;4.864;2023-06-14T14:25:34;5.78;;;1.30;;
71351;SDS011;59159;51.652;4.864;2023-06-14T14:28:00;4.75;;;1.30;;
71351;SDS011;59159;51.652;4.864;2023-06-14T14:30:26;3.90;;;1.20;;
71351;SDS011;59159;51.652;4.864;2023-06-14T14:32:53;5.00;;;1.80;;
71351;SDS011;59159;51.652;4.864;2023-06-14T14:35:19;5.55;;;1.40;;
71351;SDS011;59159;51.652;4.864;2023-06-14T14:37:45;5.50;;;1.48;;
71351;SDS011;59159;51.652;4.864;2023-06-14T14:40:11;5.93;;;1.50;;
71351;SDS011;59159;51.652;4.864;2023-06-14T14:42:37;5.50;;;1.52;;
71351;SDS011;59159;51.652;4.864;2023-06-14T14:45:04;4.95;;;1.30;;
71351;SDS011;59159;51.652;4.864;2023-06-14T14:47:30;7.27;;;1.67;;
71351;SDS011;59159;51.652;4.864;2023-06-14T14:49:56;5.45;;;1.70;;
71351;SDS011;59159;51.652;4.864;2023-06-14T14:52:22;12.75;;;2.08;;
71351;SDS011;59159;51.652;4.864;2023-06-14T14:54:48;6.32;;;1.70;;
71351;SDS011;59159;51.652;4.864;2023-06-14T14:57:14;5.03;;;1.67;;
71351;SDS011;59159;51.652;4.864;2023-06-14T14:59:40;4.97;;;1.40;;
71351;SDS011;59159;51.652;4.864;2023-06-14T15:02:06;4.35;;;1.20;;
71351;SDS011;59159;51.652;4.864;2023-06-14T15:04:32;4.50;;;1.30;;
71351;SDS011;59159;51.652;4.864;2023-06-14T15:06:58;6.00;;;1.20;;
71351;SDS011;59159;51.652;4.864;2023-06-14T15:09:24;4.88;;;1.58;;
71351;SDS011;59159;51.652;4.864;2023-06-14T15:11:51;5.00;;;1.70;;